sensor_id;sensor_type;location;lat;lon;timestamp;noise_LAeq;noise_LA_min;noise_LA_max;noise_LA01;noise_LA95
74260;Laerm;62630;55.874;37.516;2023-03-04T00:00:55;49.31;43.77;68.53;;
74260;Laerm;62630;55.874;37.516;2023-03-04T00:03:21;48.08;44.76;52.05;;
74260;Laerm;62630;55.874;37.516;2023-03-04T00:05:47;51.44;44.64;63.79;;
74260;Laerm;62630;55.874;37.516;2023-03-04T00:08:12;53.08;44.30;67.44;;
74260;Laerm;62630;55.874;37.516;2023-03-04T00:10:38;51.90;43.54;68.37;;
74260;Laerm;62630;55.874;37.516;2023-03-04T00:13:03;52.76;43.81;65.30;;
74260;Laerm;62630;55.874;37.516;2023-03-04T00:15:29;50.86;44.09;63.64;;
74260;Laerm;62630;55.874;37.516;2023-03-04T00:17:55;51.60;44.88;61.03;;
74260;Laerm;62630;55.874;37.516;2023-03-04T00:20:20;51.78;44.76;66.84;;
74260;Laerm;62630;55.874;37.516;2023-03-04T00:22:46;53.66;44.36;69.85;;
74260;Laerm;62630;55.874;37.516;2023-03-04T00:25:12;47.74;42.59;58.16;;
74260;Laerm;62630;55.874;37.516;2023-03-04T00:27:37;55.15;44.42;68.33;;
74260;Laerm;62630;55.874;37.516;2023-03-04T00:30:05;54.86;45.11;69.97;;
74260;Laerm;62630;55.874;37.516;2023-03-04T00:32:30;51.27;45.43;63.99;;
74260;Laerm;62630;55.874;37.516;2023-03-04T00:34:56;52.74;44.41;62.35;;
74260;Laerm;62630;55.874;37.516;2023-03-04T00:37:27;49.74;44.07;59.91;;
74260;Laerm;62630;55.874;37.516;2023-03-04T00:39:53;48.95;42.39;59.85;;
74260;Laerm;62630;55.874;37.516;2023-03-04T00:42:18;50.86;43.84;68.65;;
74260;Laerm;62630;55.874;37.516;2023-03-04T00:44:44;52.23;44.72;67.68;;
74260;Laerm;62630;55.874;37.516;2023-03-04T00:47:09;52.78;43.16;66.87;;
74260;Laerm;62630;55.874;37.516;2023-03-04T00:49:35;55.42;45.28;65.99;;
74260;Laerm;62630;55.874;37.516;2023-03-04T00:52:02;51.82;44.74;64.95;;
74260;Laerm;62630;55.874;37.516;2023-03-04T00:54:27;47.46;43.07;52.42;;
74260;Laerm;62630;55.874;37.516;2023-03-04T00:56:53;52.84;43.22;64.89;;
74260;Laerm;62630;55.874;37.516;2023-03-04T00:59:18;57.46;44.12;74.85;;
74260;Laerm;62630;55.874;37.516;2023-03-04T01:01:44;48.51;43.25;61.66;;
74260;Laerm;62630;55.874;37.516;2023-03-04T01:04:10;47.76;42.73;55.76;;
74260;Laerm;62630;55.874;37.516;2023-03-04T01:06:35;55.61;43.53;69.32;;
74260;Laerm;62630;55.874;37.516;2023-03-04T01:09:03;53.77;43.54;69.83;;
74260;Laerm;62630;55.874;37.516;2023-03-04T01:11:29;50.27;43.33;61.94;;
74260;Laerm;62630;55.874;37.516;2023-03-04T01:13:54;54.03;44.03;67.78;;
74260;Laerm;62630;55.874;37.516;2023-03-04T01:16:20;54.28;42.67;68.67;;
74260;Laerm;62630;55.874;37.516;2023-03-04T01:18:45;54.26;42.95;64.76;;
74260;Laerm;62630;55.874;37.516;2023-03-04T01:21:12;49.46;42.60;59.43;;
74260;Laerm;62630;55.874;37.516;2023-03-04T01:23:37;51.21;43.17;64.05;;
74260;Laerm;62630;55.874;37.516;2023-03-04T01:26:03;51.43;43.44;62.92;;
74260;Laerm;62630;55.874;37.516;2023-03-04T01:28:28;50.34;43.28;64.15;;
74260;Laerm;62630;55.874;37.516;2023-03-04T01:30:54;50.77;42.78;64.18;;
74260;Laerm;62630;55.874;37.516;2023-03-04T01:33:20;53.41;43.23;65.96;;
74260;Laerm;62630;55.874;37.516;2023-03-04T01:35:45;58.50;43.24;71.12;;
74260;Laerm;62630;55.874;37.516;2023-03-04T01:38:11;56.75;43.30;75.64;;
74260;Laerm;62630;55.874;37.516;2023-03-04T01:40:37;62.91;42.86;79.88;;
74260;Laerm;62630;55.874;37.516;2023-03-04T01:43:03;55.49;42.72;68.15;;
74260;Laerm;62630;55.874;37.516;2023-03-04T01:45:30;51.63;43.68;68.17;;
74260;Laerm;62630;55.874;37.516;2023-03-04T01:47:56;53.73;43.82;66.26;;
74260;Laerm;62630;55.874;37.516;2023-03-04T01:50:32;47.58;44.19;52.09;;
74260;Laerm;62630;55.874;37.516;2023-03-04T01:52:58;49.03;44.37;57.55;;
74260;Laerm;62630;55.874;37.516;2023-03-04T01:55:24;57.76;43.86;72.16;;
74260;Laerm;62630;55.874;37.516;2023-03-04T01:57:51;54.24;44.78;77.54;;
74260;Laerm;62630;55.874;37.516;2023-03-04T02:00:20;54.96;43.80;67.23;;
74260;Laerm;62630;55.874;37.516;2023-03-04T02:02:48;48.94;43.10;61.31;;
74260;Laerm;62630;55.874;37.516;2023-03-04T02:05:15;54.17;43.41;65.38;;
74260;Laerm;62630;55.874;37.516;2023-03-04T02:07:42;51.45;43.29;65.64;;
74260;Laerm;62630;55.874;37.516;2023-03-04T02:10:08;49.64;43.51;64.42;;
74260;Laerm;62630;55.874;37.516;2023-03-04T02:12:34;55.78;44.04;64.89;;
74260;Laerm;62630;55.874;37.516;2023-03-04T02:15:00;53.76;45.06;69.65;;
74260;Laerm;62630;55.874;37.516;2023-03-04T02:17:26;61.50;45.69;75.76;;
74260;Laerm;62630;55.874;37.516;2023-03-04T02:20:29;53.01;44.89;66.81;;
74260;Laerm;62630;55.874;37.516;2023-03-04T02:23:02;55.99;44.55;70.05;;
74260;Laerm;62630;55.874;37.516;2023-03-04T02:25:36;53.76;44.05;63.27;;
74260;Laerm;62630;55.874;37.516;2023-03-04T02:28:05;51.28;43.56;63.84;;
74260;Laerm;62630;55.874;37.516;2023-03-04T02:30:30;50.08;43.28;63.12;;
74260;Laerm;62630;55.874;37.516;2023-03-04T02:32:56;56.63;43.69;70.48;;
74260;Laerm;62630;55.874;37.516;2023-03-04T02:35:22;52.20;43.05;68.78;;
74260;Laerm;62630;55.874;37.516;2023-03-04T02:37:47;62.63;44.40;76.96;;
74260;Laerm;62630;55.874;37.516;2023-03-04T02:40:17;65.82;45.42;85.90;;
74260;Laerm;62630;55.874;37.516;2023-03-04T02:42:45;61.66;44.63;75.61;;
74260;Laerm;62630;55.874;37.516;2023-03-04T02:45:30;57.45;46.01;72.62;;
74260;Laerm;62630;55.874;37.516;2023-03-04T02:47:58;54.70;45.70;65.38;;
74260;Laerm;62630;55.874;37.516;2023-03-04T02:50:24;58.59;50.01;72.52;;
74260;Laerm;62630;55.874;37.516;2023-03-04T02:52:50;60.72;49.61;78.94;;
74260;Laerm;62630;55.874;37.516;2023-03-04T02:55:16;58.47;50.69;66.70;;
74260;Laerm;62630;55.874;37.516;2023-03-04T02:57:41;75.40;50.02;92.19;;
74260;Laerm;62630;55.874;37.516;2023-03-04T03:00:07;53.67;49.68;63.16;;
74260;Laerm;62630;55.874;37.516;2023-03-04T03:02:33;57.02;49.05;70.15;;
74260;Laerm;62630;55.874;37.516;2023-03-04T03:04:58;70.66;49.02;88.29;;
74260;Laerm;62630;55.874;37.516;2023-03-04T03:07:24;55.77;48.24;66.85;;
74260;Laerm;62630;55.874;37.516;2023-03-04T03:09:49;55.07;44.92;67.80;;
74260;Laerm;62630;55.874;37.516;2023-03-04T03:12:15;56.00;45.14;67.31;;
74260;Laerm;62630;55.874;37.516;2023-03-04T03:14:40;55.27;45.56;65.77;;
74260;Laerm;62630;55.874;37.516;2023-03-04T03:17:06;64.11;48.27;76.15;;
74260;Laerm;62630;55.874;37.516;2023-03-04T03:19:31;56.11;48.63;72.56;;
74260;Laerm;62630;55.874;37.516;2023-03-04T03:21:57;58.66;48.69;78.61;;
74260;Laerm;62630;55.874;37.516;2023-03-04T03:24:22;63.77;49.69;78.08;;
74260;Laerm;62630;55.874;37.516;2023-03-04T03:26:48;55.02;49.27;66.21;;
74260;Laerm;62630;55.874;37.516;2023-03-04T03:29:13;53.43;44.51;65.46;;
74260;Laerm;62630;55.874;37.516;2023-03-04T03:31:39;51.95;45.55;63.16;;
74260;Laerm;62630;55.874;37.516;2023-03-04T03:34:04;56.65;45.78;69.70;;
74260;Laerm;62630;55.874;37.516;2023-03-04T03:36:30;55.37;46.94;69.23;;
74260;Laerm;62630;55.874;37.516;2023-03-04T03:38:55;51.86;46.77;64.23;;
74260;Laerm;62630;55.874;37.516;2023-03-04T03:41:21;60.56;49.95;72.36;;
74260;Laerm;62630;55.874;37.516;2023-03-04T03:43:46;55.76;47.97;67.00;;
74260;Laerm;62630;55.874;37.516;2023-03-04T03:46:12;62.19;47.09;79.92;;
74260;Laerm;62630;55.874;37.516;2023-03-04T03:48:37;55.70;46.72;65.56;;
74260;Laerm;62630;55.874;37.516;2023-03-04T03:51:03;59.71;46.89;71.19;;
74260;Laerm;62630;55.874;37.516;2023-03-04T03:53:28;58.98;47.30;72.38;;
74260;Laerm;62630;55.874;37.516;2023-03-04T03:55:54;55.83;48.94;66.55;;
74260;Laerm;62630;55.874;37.516;2023-03-04T03:58:19;56.99;47.65;65.87;;
74260;Laerm;62630;55.874;37.516;2023-03-04T04:00:45;63.25;49.56;76.05;;
74260;Laerm;62630;55.874;37.516;2023-03-04T04:03:13;57.91;46.34;69.92;;
74260;Laerm;62630;55.874;37.516;2023-03-04T04:05:39;58.59;47.61;69.62;;
74260;Laerm;62630;55.874;37.516;2023-03-04T04:08:05;58.95;48.83;79.85;;
74260;Laerm;62630;55.874;37.516;2023-03-04T04:10:31;57.99;46.24;70.69;;
74260;Laerm;62630;55.874;37.516;2023-03-04T04:12:56;59.72;49.81;69.05;;
74260;Laerm;62630;55.874;37.516;2023-03-04T04:15:22;57.69;49.38;70.14;;
74260;Laerm;62630;55.874;37.516;2023-03-04T04:17:47;65.65;48.42;81.22;;
74260;Laerm;62630;55.874;37.516;2023-03-04T04:20:13;56.11;48.41;65.14;;
74260;Laerm;62630;55.874;37.516;2023-03-04T04:22:38;57.91;48.79;68.61;;
74260;Laerm;62630;55.874;37.516;2023-03-04T04:25:04;61.58;48.71;73.51;;
74260;Laerm;62630;55.874;37.516;2023-03-04T04:27:30;58.18;49.33;66.87;;
74260;Laerm;62630;55.874;37.516;2023-03-04T04:29:55;62.07;48.33;76.66;;
74260;Laerm;62630;55.874;37.516;2023-03-04T04:32:21;59.64;49.68;69.37;;
74260;Laerm;62630;55.874;37.516;2023-03-04T04:34:46;57.62;49.12;67.91;;
74260;Laerm;62630;55.874;37.516;2023-03-04T04:37:12;59.50;49.70;71.60;;
74260;Laerm;62630;55.874;37.516;2023-03-04T04:39:37;61.43;49.65;85.74;;
74260;Laerm;62630;55.874;37.516;2023-03-04T04:42:03;57.98;48.84;66.65;;
74260;Laerm;62630;55.874;37.516;2023-03-04T04:44:28;63.75;51.16;82.00;;
74260;Laerm;62630;55.874;37.516;2023-03-04T04:46:54;68.42;52.22;86.53;;
74260;Laerm;62630;55.874;37.516;2023-03-04T04:49:20;57.33;48.57;70.57;;
74260;Laerm;62630;55.874;37.516;2023-03-04T04:51:45;59.11;49.74;72.79;;
74260;Laerm;62630;55.874;37.516;2023-03-04T04:54:12;58.03;48.80;67.34;;
74260;Laerm;62630;55.874;37.516;2023-03-04T04:56:38;59.66;49.28;76.66;;
74260;Laerm;62630;55.874;37.516;2023-03-04T04:59:04;65.56;51.40;79.61;;
74260;Laerm;62630;55.874;37.516;2023-03-04T05:01:31;61.04;52.87;71.52;;
74260;Laerm;62630;55.874;37.516;2023-03-04T05:03:57;67.38;52.09;77.36;;
74260;Laerm;62630;55.874;37.516;2023-03-04T05:06:23;64.35;54.88;76.82;;
74260;Laerm;62630;55.874;37.516;2023-03-04T05:08:49;57.30;49.14;66.54;;
74260;Laerm;62630;55.874;37.516;2023-03-04T05:11:16;60.53;50.86;71.29;;
74260;Laerm;62630;55.874;37.516;2023-03-04T05:13:43;59.60;49.58;69.44;;
74260;Laerm;62630;55.874;37.516;2023-03-04T05:16:09;62.28;51.57;70.77;;
74260;Laerm;62630;55.874;37.516;2023-03-04T05:18:35;60.53;49.95;70.70;;
74260;Laerm;62630;55.874;37.516;2023-03-04T05:21:01;57.84;49.93;66.42;;
74260;Laerm;62630;55.874;37.516;2023-03-04T05:23:31;64.31;54.28;76.24;;
74260;Laerm;62630;55.874;37.516;2023-03-04T05:26:00;68.36;54.49;84.84;;
74260;Laerm;62630;55.874;37.516;2023-03-04T05:28:25;60.07;50.25;68.81;;
74260;Laerm;62630;55.874;37.516;2023-03-04T05:30:51;60.32;48.72;70.42;;
74260;Laerm;62630;55.874;37.516;2023-03-04T05:33:17;62.07;53.83;68.86;;
74260;Laerm;62630;55.874;37.516;2023-03-04T05:35:44;65.71;50.50;81.50;;
74260;Laerm;62630;55.874;37.516;2023-03-04T05:38:11;60.68;51.25;72.12;;
74260;Laerm;62630;55.874;37.516;2023-03-04T05:40:38;62.45;51.69;81.93;;
74260;Laerm;62630;55.874;37.516;2023-03-04T05:43:03;59.48;50.45;68.56;;
74260;Laerm;62630;55.874;37.516;2023-03-04T05:45:29;64.68;54.36;76.65;;
74260;Laerm;62630;55.874;37.516;2023-03-04T05:47:55;61.81;49.73;73.05;;
74260;Laerm;62630;55.874;37.516;2023-03-04T05:50:21;59.25;49.24;71.65;;
74260;Laerm;62630;55.874;37.516;2023-03-04T05:52:48;62.18;51.63;77.75;;
74260;Laerm;62630;55.874;37.516;2023-03-04T05:55:14;59.85;51.49;72.17;;
74260;Laerm;62630;55.874;37.516;2023-03-04T05:57:40;65.33;53.37;80.71;;
74260;Laerm;62630;55.874;37.516;2023-03-04T06:00:07;60.51;51.32;69.63;;
74260;Laerm;62630;55.874;37.516;2023-03-04T06:02:37;63.78;54.08;74.55;;
74260;Laerm;62630;55.874;37.516;2023-03-04T06:05:03;62.53;53.97;70.23;;
74260;Laerm;62630;55.874;37.516;2023-03-04T06:07:29;67.21;53.31;80.59;;
74260;Laerm;62630;55.874;37.516;2023-03-04T06:09:55;64.94;55.03;78.26;;
74260;Laerm;62630;55.874;37.516;2023-03-04T06:12:20;64.90;55.41;77.60;;
74260;Laerm;62630;55.874;37.516;2023-03-04T06:14:46;65.29;56.59;75.06;;
74260;Laerm;62630;55.874;37.516;2023-03-04T06:17:12;64.02;54.05;79.76;;
74260;Laerm;62630;55.874;37.516;2023-03-04T06:19:38;61.96;51.03;73.19;;
74260;Laerm;62630;55.874;37.516;2023-03-04T06:22:04;61.19;51.04;71.12;;
74260;Laerm;62630;55.874;37.516;2023-03-04T06:24:30;61.93;54.14;72.00;;
74260;Laerm;62630;55.874;37.516;2023-03-04T06:26:55;62.78;51.17;73.71;;
74260;Laerm;62630;55.874;37.516;2023-03-04T06:29:21;62.99;51.11;71.17;;
74260;Laerm;62630;55.874;37.516;2023-03-04T06:31:46;64.09;52.02;74.68;;
74260;Laerm;62630;55.874;37.516;2023-03-04T06:34:12;64.74;52.93;76.92;;
74260;Laerm;62630;55.874;37.516;2023-03-04T06:36:37;63.04;54.93;79.48;;
74260;Laerm;62630;55.874;37.516;2023-03-04T06:39:04;64.22;55.78;75.87;;
74260;Laerm;62630;55.874;37.516;2023-03-04T06:41:30;63.98;52.70;76.37;;
74260;Laerm;62630;55.874;37.516;2023-03-04T06:43:56;60.85;51.68;70.21;;
74260;Laerm;62630;55.874;37.516;2023-03-04T06:46:22;63.50;54.38;72.24;;
74260;Laerm;62630;55.874;37.516;2023-03-04T06:48:47;66.41;53.05;83.91;;
74260;Laerm;62630;55.874;37.516;2023-03-04T06:51:13;63.41;55.37;75.59;;
74260;Laerm;62630;55.874;37.516;2023-03-04T06:53:39;61.32;50.71;70.66;;
74260;Laerm;62630;55.874;37.516;2023-03-04T06:56:06;64.68;55.40;74.29;;
74260;Laerm;62630;55.874;37.516;2023-03-04T06:58:32;62.43;50.03;75.54;;
74260;Laerm;62630;55.874;37.516;2023-03-04T07:01:29;62.10;51.57;71.16;;
74260;Laerm;62630;55.874;37.516;2023-03-04T07:03:55;67.85;53.88;81.39;;
74260;Laerm;62630;55.874;37.516;2023-03-04T07:06:23;69.32;57.69;83.30;;
74260;Laerm;62630;55.874;37.516;2023-03-04T07:08:49;68.32;53.07;82.22;;
74260;Laerm;62630;55.874;37.516;2023-03-04T07:11:16;70.84;58.26;85.08;;
74260;Laerm;62630;55.874;37.516;2023-03-04T07:13:43;63.02;53.99;70.94;;
74260;Laerm;62630;55.874;37.516;2023-03-04T07:16:15;64.07;53.16;75.83;;
74260;Laerm;62630;55.874;37.516;2023-03-04T07:18:42;61.57;51.03;74.51;;
74260;Laerm;62630;55.874;37.516;2023-03-04T07:21:08;63.49;54.90;70.00;;
74260;Laerm;62630;55.874;37.516;2023-03-04T07:23:34;61.30;53.18;67.41;;
74260;Laerm;62630;55.874;37.516;2023-03-04T07:26:00;66.55;55.78;77.66;;
74260;Laerm;62630;55.874;37.516;2023-03-04T07:28:26;60.21;47.85;71.14;;
74260;Laerm;62630;55.874;37.516;2023-03-04T07:30:52;64.36;54.56;72.46;;
74260;Laerm;62630;55.874;37.516;2023-03-04T07:33:17;64.00;52.36;74.89;;
74260;Laerm;62630;55.874;37.516;2023-03-04T07:35:46;66.81;55.23;78.37;;
74260;Laerm;62630;55.874;37.516;2023-03-04T07:38:14;61.10;50.63;69.44;;
74260;Laerm;62630;55.874;37.516;2023-03-04T07:40:40;60.93;52.35;78.84;;
74260;Laerm;62630;55.874;37.516;2023-03-04T07:43:05;63.88;53.56;83.97;;
74260;Laerm;62630;55.874;37.516;2023-03-04T07:45:39;68.79;55.17;83.85;;
74260;Laerm;62630;55.874;37.516;2023-03-04T07:48:05;65.04;50.60;75.10;;
74260;Laerm;62630;55.874;37.516;2023-03-04T07:50:30;63.26;49.31;73.72;;
74260;Laerm;62630;55.874;37.516;2023-03-04T07:52:56;66.85;55.07;79.22;;
74260;Laerm;62630;55.874;37.516;2023-03-04T07:55:21;63.64;53.08;73.33;;
74260;Laerm;62630;55.874;37.516;2023-03-04T07:57:47;63.66;54.60;75.62;;
74260;Laerm;62630;55.874;37.516;2023-03-04T08:00:15;63.53;51.81;71.34;;
74260;Laerm;62630;55.874;37.516;2023-03-04T08:02:41;64.46;52.98;84.14;;
74260;Laerm;62630;55.874;37.516;2023-03-04T08:05:06;66.21;52.61;78.80;;
74260;Laerm;62630;55.874;37.516;2023-03-04T08:07:35;64.25;55.08;74.96;;
74260;Laerm;62630;55.874;37.516;2023-03-04T08:10:00;62.79;53.42;71.91;;
74260;Laerm;62630;55.874;37.516;2023-03-04T08:12:26;64.06;54.05;77.99;;
74260;Laerm;62630;55.874;37.516;2023-03-04T08:14:52;63.88;55.98;75.05;;
74260;Laerm;62630;55.874;37.516;2023-03-04T08:17:18;63.81;54.12;76.47;;
74260;Laerm;62630;55.874;37.516;2023-03-04T08:19:43;68.06;59.71;79.42;;
74260;Laerm;62630;55.874;37.516;2023-03-04T08:22:12;63.45;54.69;73.65;;
74260;Laerm;62630;55.874;37.516;2023-03-04T08:24:38;64.89;54.62;72.30;;
74260;Laerm;62630;55.874;37.516;2023-03-04T08:27:03;64.93;55.02;75.42;;
74260;Laerm;62630;55.874;37.516;2023-03-04T08:29:29;65.15;55.93;72.62;;
74260;Laerm;62630;55.874;37.516;2023-03-04T08:31:58;64.82;54.70;78.79;;
74260;Laerm;62630;55.874;37.516;2023-03-04T08:34:26;67.17;54.81;74.27;;
74260;Laerm;62630;55.874;37.516;2023-03-04T08:36:52;65.39;55.98;78.88;;
74260;Laerm;62630;55.874;37.516;2023-03-04T08:39:18;64.50;57.46;73.40;;
74260;Laerm;62630;55.874;37.516;2023-03-04T08:41:45;67.42;57.53;77.36;;
74260;Laerm;62630;55.874;37.516;2023-03-04T08:44:11;67.87;57.86;87.38;;
74260;Laerm;62630;55.874;37.516;2023-03-04T08:46:38;66.21;57.17;74.55;;
74260;Laerm;62630;55.874;37.516;2023-03-04T08:49:04;65.58;55.34;82.19;;
74260;Laerm;62630;55.874;37.516;2023-03-04T08:51:48;65.72;55.33;75.51;;
74260;Laerm;62630;55.874;37.516;2023-03-04T08:54:14;65.47;53.22;72.25;;
74260;Laerm;62630;55.874;37.516;2023-03-04T08:56:40;65.81;55.30;75.41;;
74260;Laerm;62630;55.874;37.516;2023-03-04T08:59:05;65.61;56.02;77.69;;
74260;Laerm;62630;55.874;37.516;2023-03-04T09:01:31;69.87;57.19;81.25;;
74260;Laerm;62630;55.874;37.516;2023-03-04T09:03:56;66.64;57.60;72.43;;
74260;Laerm;62630;55.874;37.516;2023-03-04T09:06:22;68.18;54.86;82.00;;
74260;Laerm;62630;55.874;37.516;2023-03-04T09:08:48;66.47;53.75;74.98;;
74260;Laerm;62630;55.874;37.516;2023-03-04T09:11:14;65.30;55.13;74.90;;
74260;Laerm;62630;55.874;37.516;2023-03-04T09:13:40;64.03;52.83;74.55;;
74260;Laerm;62630;55.874;37.516;2023-03-04T09:16:10;68.94;58.93;78.31;;
74260;Laerm;62630;55.874;37.516;2023-03-04T09:18:36;66.86;57.48;82.37;;
74260;Laerm;62630;55.874;37.516;2023-03-04T09:21:04;66.26;56.79;81.43;;
74260;Laerm;62630;55.874;37.516;2023-03-04T09:23:29;66.05;55.57;74.94;;
74260;Laerm;62630;55.874;37.516;2023-03-04T09:25:55;65.71;58.85;78.32;;
74260;Laerm;62630;55.874;37.516;2023-03-04T09:28:20;68.40;60.04;84.84;;
74260;Laerm;62630;55.874;37.516;2023-03-04T09:30:46;68.88;56.18;90.64;;
74260;Laerm;62630;55.874;37.516;2023-03-04T09:33:15;65.43;56.73;79.18;;
74260;Laerm;62630;55.874;37.516;2023-03-04T09:35:41;67.29;54.13;80.82;;
74260;Laerm;62630;55.874;37.516;2023-03-04T09:38:07;65.37;56.78;74.75;;
74260;Laerm;62630;55.874;37.516;2023-03-04T09:40:40;65.99;57.88;74.96;;
74260;Laerm;62630;55.874;37.516;2023-03-04T09:43:17;65.91;57.50;85.90;;
74260;Laerm;62630;55.874;37.516;2023-03-04T09:45:48;65.91;57.00;77.17;;
74260;Laerm;62630;55.874;37.516;2023-03-04T09:48:19;65.98;58.68;77.51;;
74260;Laerm;62630;55.874;37.516;2023-03-04T09:51:17;65.72;56.06;74.47;;
74260;Laerm;62630;55.874;37.516;2023-03-04T09:54:05;70.61;54.20;87.74;;
74260;Laerm;62630;55.874;37.516;2023-03-04T09:56:37;64.72;53.05;73.40;;
74260;Laerm;62630;55.874;37.516;2023-03-04T09:59:29;67.87;55.64;86.06;;
74260;Laerm;62630;55.874;37.516;2023-03-04T10:02:06;69.07;54.87;85.28;;
74260;Laerm;62630;55.874;37.516;2023-03-04T10:07:07;64.37;53.20;70.99;;
74260;Laerm;62630;55.874;37.516;2023-03-04T10:09:59;63.32;53.73;73.33;;
74260;Laerm;62630;55.874;37.516;2023-03-04T10:12:28;64.09;53.53;72.59;;
74260;Laerm;62630;55.874;37.516;2023-03-04T10:15:03;63.88;52.42;76.19;;
74260;Laerm;62630;55.874;37.516;2023-03-04T10:17:42;65.15;56.07;73.49;;
74260;Laerm;62630;55.874;37.516;2023-03-04T10:20:24;64.60;54.91;72.46;;
74260;Laerm;62630;55.874;37.516;2023-03-04T10:23:04;69.09;57.25;84.53;;
74260;Laerm;62630;55.874;37.516;2023-03-04T10:25:34;65.39;57.54;77.38;;
74260;Laerm;62630;55.874;37.516;2023-03-04T10:28:24;64.46;57.30;73.90;;
74260;Laerm;62630;55.874;37.516;2023-03-04T10:31:20;66.68;56.81;81.55;;
74260;Laerm;62630;55.874;37.516;2023-03-04T10:33:52;64.41;53.12;83.44;;
74260;Laerm;62630;55.874;37.516;2023-03-04T10:39:01;67.81;54.50;82.64;;
74260;Laerm;62630;55.874;37.516;2023-03-04T10:41:29;68.77;57.23;82.27;;
74260;Laerm;62630;55.874;37.516;2023-03-04T10:46:23;65.74;55.58;75.60;;
74260;Laerm;62630;55.874;37.516;2023-03-04T10:48:48;66.74;57.36;77.36;;
74260;Laerm;62630;55.874;37.516;2023-03-04T10:51:25;66.73;59.09;82.03;;
74260;Laerm;62630;55.874;37.516;2023-03-04T10:53:58;63.68;49.83;72.27;;
74260;Laerm;62630;55.874;37.516;2023-03-04T10:56:38;65.73;57.54;74.30;;
74260;Laerm;62630;55.874;37.516;2023-03-04T11:01:54;66.49;59.17;79.08;;
74260;Laerm;62630;55.874;37.516;2023-03-04T11:04:23;68.08;57.76;81.83;;
74260;Laerm;62630;55.874;37.516;2023-03-04T11:06:52;65.09;55.47;78.43;;
74260;Laerm;62630;55.874;37.516;2023-03-04T11:09:27;66.10;54.76;84.76;;
74260;Laerm;62630;55.874;37.516;2023-03-04T11:12:01;65.96;56.90;77.61;;
74260;Laerm;62630;55.874;37.516;2023-03-04T11:14:34;64.55;55.73;72.72;;
74260;Laerm;62630;55.874;37.516;2023-03-04T11:17:16;68.88;59.04;83.33;;
74260;Laerm;62630;55.874;37.516;2023-03-04T11:26:32;67.54;55.89;81.89;;
74260;Laerm;62630;55.874;37.516;2023-03-04T11:29:00;65.80;57.00;77.68;;
74260;Laerm;62630;55.874;37.516;2023-03-04T11:31:36;64.46;54.44;74.29;;
74260;Laerm;62630;55.874;37.516;2023-03-04T11:37:15;63.91;53.76;72.00;;
74260;Laerm;62630;55.874;37.516;2023-03-04T11:39:53;66.08;57.51;81.99;;
74260;Laerm;62630;55.874;37.516;2023-03-04T11:44:50;63.75;54.81;70.83;;
74260;Laerm;62630;55.874;37.516;2023-03-04T11:47:25;65.01;57.38;71.41;;
74260;Laerm;62630;55.874;37.516;2023-03-04T12:11:41;64.73;56.78;72.24;;
74260;Laerm;62630;55.874;37.516;2023-03-04T12:14:20;70.17;55.98;83.67;;
74260;Laerm;62630;55.874;37.516;2023-03-04T12:17:13;68.12;56.06;79.16;;
74260;Laerm;62630;55.874;37.516;2023-03-04T12:25:39;64.94;52.71;72.51;;
74260;Laerm;62630;55.874;37.516;2023-03-04T12:33:48;66.31;58.35;75.25;;
74260;Laerm;62630;55.874;37.516;2023-03-04T12:36:40;64.31;53.33;71.16;;
74260;Laerm;62630;55.874;37.516;2023-03-04T12:39:38;66.73;57.63;76.56;;
74260;Laerm;62630;55.874;37.516;2023-03-04T12:45:15;65.92;54.20;74.91;;
74260;Laerm;62630;55.874;37.516;2023-03-04T12:47:55;65.65;57.05;72.76;;
74260;Laerm;62630;55.874;37.516;2023-03-04T12:56:47;65.82;55.80;78.30;;
74260;Laerm;62630;55.874;37.516;2023-03-04T12:59:20;66.44;56.75;78.25;;
74260;Laerm;62630;55.874;37.516;2023-03-04T13:02:01;65.11;52.56;76.04;;
74260;Laerm;62630;55.874;37.516;2023-03-04T13:04:37;65.68;57.79;73.79;;
74260;Laerm;62630;55.874;37.516;2023-03-04T13:10:09;69.51;58.03;84.56;;
74260;Laerm;62630;55.874;37.516;2023-03-04T13:41:12;66.77;58.22;82.81;;
74260;Laerm;62630;55.874;37.516;2023-03-04T13:43:39;65.32;53.21;77.19;;
74260;Laerm;62630;55.874;37.516;2023-03-04T13:51:22;66.44;56.58;79.27;;
74260;Laerm;62630;55.874;37.516;2023-03-04T13:53:52;64.51;56.43;81.66;;
74260;Laerm;62630;55.874;37.516;2023-03-04T14:01:47;68.36;58.67;80.36;;
74260;Laerm;62630;55.874;37.516;2023-03-04T14:06:48;66.46;56.66;77.11;;
74260;Laerm;62630;55.874;37.516;2023-03-04T14:09:26;64.72;56.86;79.26;;
74260;Laerm;62630;55.874;37.516;2023-03-04T14:11:55;71.75;56.00;88.32;;
74260;Laerm;62630;55.874;37.516;2023-03-04T14:14:40;66.04;56.11;73.64;;
74260;Laerm;62630;55.874;37.516;2023-03-04T14:17:27;65.39;57.68;73.26;;
74260;Laerm;62630;55.874;37.516;2023-03-04T14:23:28;62.49;51.35;75.08;;
74260;Laerm;62630;55.874;37.516;2023-03-04T14:26:14;65.62;55.15;76.73;;
74260;Laerm;62630;55.874;37.516;2023-03-04T14:28:49;69.73;55.68;84.19;;
74260;Laerm;62630;55.874;37.516;2023-03-04T14:31:21;65.91;54.97;79.17;;
74260;Laerm;62630;55.874;37.516;2023-03-04T14:33:53;64.98;54.12;76.57;;
74260;Laerm;62630;55.874;37.516;2023-03-04T14:36:27;65.77;56.04;73.57;;
74260;Laerm;62630;55.874;37.516;2023-03-04T14:39:02;66.17;55.04;77.58;;
74260;Laerm;62630;55.874;37.516;2023-03-04T14:41:34;63.80;56.22;73.32;;
74260;Laerm;62630;55.874;37.516;2023-03-04T14:44:10;66.42;55.42;76.94;;
74260;Laerm;62630;55.874;37.516;2023-03-04T14:46:49;66.50;54.81;80.29;;
74260;Laerm;62630;55.874;37.516;2023-03-04T14:49:15;64.71;53.92;74.63;;
74260;Laerm;62630;55.874;37.516;2023-03-04T14:51:51;65.42;54.94;73.27;;
74260;Laerm;62630;55.874;37.516;2023-03-04T14:54:38;68.64;54.59;87.73;;
74260;Laerm;62630;55.874;37.516;2023-03-04T14:57:23;72.67;54.85;94.10;;
74260;Laerm;62630;55.874;37.516;2023-03-04T14:59:51;63.10;50.53;71.10;;
74260;Laerm;62630;55.874;37.516;2023-03-04T15:04:45;62.71;53.41;71.38;;
74260;Laerm;62630;55.874;37.516;2023-03-04T15:07:18;63.93;53.02;73.25;;
74260;Laerm;62630;55.874;37.516;2023-03-04T15:09:50;64.19;53.23;71.17;;
74260;Laerm;62630;55.874;37.516;2023-03-04T15:12:31;61.89;54.16;74.53;;
74260;Laerm;62630;55.874;37.516;2023-03-04T15:15:00;68.73;54.12;83.37;;
74260;Laerm;62630;55.874;37.516;2023-03-04T15:17:36;63.82;54.93;73.94;;
74260;Laerm;62630;55.874;37.516;2023-03-04T15:22:35;61.16;51.89;79.38;;
74260;Laerm;62630;55.874;37.516;2023-03-04T15:25:01;61.86;53.38;70.14;;
74260;Laerm;62630;55.874;37.516;2023-03-04T15:27:29;62.89;54.42;73.57;;
74260;Laerm;62630;55.874;37.516;2023-03-04T15:29:57;62.72;53.46;79.52;;
74260;Laerm;62630;55.874;37.516;2023-03-04T15:32:27;64.61;51.84;76.39;;
74260;Laerm;62630;55.874;37.516;2023-03-04T15:34:53;62.77;53.25;73.80;;
74260;Laerm;62630;55.874;37.516;2023-03-04T15:37:22;63.24;54.82;81.79;;
74260;Laerm;62630;55.874;37.516;2023-03-04T15:40:26;61.95;53.12;71.01;;